Time;durP1;ratioP1;P1;durP2;ratioP2;P2;SDS_P1;SDS_P2;PMS_P1;PMS_P2;Temp;Humidity;BMP_temperature;BMP_pressure;BME280_temperature;BME280_humidity;BME280_pressure;Samples;Min_cycle;Max_cycle;Signal;HPM_P1;HPM_P2
2022/06/28 00:02:21;;;;;;;8.65;7.18;;;;;;;17.23;100.00;101004.72;6138414;28;20043;-89
2022/06/28 00:05:23;;;;;;;11.23;8.30;;;;;;;17.11;100.00;101007.75;6136888;28;20058;-89
2022/06/28 00:08:25;;;;;;;8.75;7.85;;;;;;;17.00;100.00;101007.03;6135541;28;20039;-89
2022/06/28 00:11:27;;;;;;;10.55;7.90;;;;;;;17.09;100.00;101009.69;6131792;28;20477;-89
2022/06/28 00:17:51;;;;;;;8.65;7.75;;;;;;;17.06;100.00;101020.47;6118057;29;20044;-90
2022/06/28 00:20:52;;;;;;;11.88;8.98;;;;;;;17.05;100.00;101021.44;6122710;29;20206;-89
2022/06/28 00:23:54;;;;;;;11.60;8.02;;;;;;;17.14;100.00;101044.91;6120238;28;20070;-90
2022/06/28 00:26:56;;;;;;;10.93;9.10;;;;;;;17.08;100.00;101040.28;6128789;29;20095;-88
2022/06/28 00:29:58;;;;;;;10.82;8.23;;;;;;;17.09;100.00;101046.31;6126100;28;20130;-89
2022/06/28 00:33:00;;;;;;;12.30;8.55;;;;;;;16.98;100.00;101047.38;6129469;29;20058;-89
2022/06/28 00:36:02;;;;;;;9.25;7.57;;;;;;;17.04;100.00;101062.44;6127466;28;20047;-88
2022/06/28 00:39:04;;;;;;;12.00;7.78;;;;;;;16.87;100.00;101068.50;6130872;29;20781;-88
2022/06/28 00:42:12;;;;;;;10.48;7.57;;;;;;;16.70;100.00;101086.63;6130177;28;20039;-89
2022/06/28 00:45:14;;;;;;;9.63;7.82;;;;;;;16.65;100.00;101095.88;6127783;29;20142;-90
2022/06/28 00:48:18;;;;;;;12.27;7.72;;;;;;;16.56;100.00;101094.97;6130230;28;20049;-88
2022/06/28 00:51:20;;;;;;;9.23;7.93;;;;;;;16.46;100.00;101097.63;6133025;29;20074;-87
2022/06/28 00:54:23;;;;;;;11.25;7.90;;;;;;;16.39;100.00;101100.97;6133725;29;20043;-89
2022/06/28 00:57:25;;;;;;;12.60;7.93;;;;;;;16.20;100.00;101107.09;6131470;28;20157;-89
2022/06/28 01:00:29;;;;;;;9.05;7.40;;;;;;;16.12;100.00;101100.81;6130999;28;20572;-89
2022/06/28 01:03:32;;;;;;;9.77;7.80;;;;;;;16.00;100.00;101111.56;6120262;29;20051;-89
2022/06/28 01:06:37;;;;;;;13.05;8.52;;;;;;;15.88;100.00;101103.91;6125413;28;20213;-87
2022/06/28 01:09:41;;;;;;;10.02;7.43;;;;;;;15.90;100.00;101101.16;6134635;29;20043;-88
2022/06/28 01:12:43;;;;;;;10.30;8.38;;;;;;;15.74;100.00;101106.13;6134046;28;20551;-89
2022/06/28 01:15:44;;;;;;;12.05;8.60;;;;;;;15.58;100.00;101101.47;6137825;29;20059;-88
2022/06/28 01:18:47;;;;;;;11.02;7.50;;;;;;;15.55;100.00;101105.16;6120537;29;20402;-87
2022/06/28 01:22:05;;;;;;;11.45;7.13;;;;;;;15.52;100.00;101095.00;6130778;29;20532;-88
2022/06/28 01:25:08;;;;;;;10.00;7.07;;;;;;;15.46;100.00;101091.19;6124624;29;20051;-88
2022/06/28 01:28:13;;;;;;;9.73;7.32;;;;;;;15.45;100.00;101099.97;6134528;29;20055;-88
2022/06/28 01:31:22;;;;;;;9.18;7.05;;;;;;;15.37;100.00;101099.81;6115225;29;20054;-89
2022/06/28 01:34:25;;;;;;;9.73;7.05;;;;;;;15.31;100.00;101089.97;6121887;28;20048;-88
2022/06/28 01:37:29;;;;;;;8.57;6.97;;;;;;;15.36;100.00;101099.97;6138948;28;20040;-89
2022/06/28 01:40:31;;;;;;;10.40;7.38;;;;;;;15.29;100.00;101102.31;6135224;29;20054;-89
2022/06/28 01:43:36;;;;;;;10.00;6.97;;;;;;;15.24;100.00;101101.91;6130387;29;20055;-89
2022/06/28 01:46:39;;;;;;;6.93;6.15;;;;;;;15.26;100.00;101094.75;6137583;28;20051;-89
2022/06/28 01:49:46;;;;;;;9.50;6.93;;;;;;;15.22;100.00;101091.59;6143770;28;20055;-89
2022/06/28 01:52:50;;;;;;;8.32;7.03;;;;;;;15.25;100.00;101098.31;6131764;29;20062;-89
2022/06/28 01:56:10;;;;;;;8.35;7.10;;;;;;;15.19;100.00;101093.66;6140396;28;20047;-89
2022/06/28 01:59:33;;;;;;;9.25;6.75;;;;;;;15.18;100.00;101090.25;6135428;28;20055;-89
2022/06/28 02:02:41;;;;;;;8.20;6.22;;;;;;;15.14;100.00;101091.47;6135387;29;20106;-89
2022/06/28 02:06:02;;;;;;;8.10;6.53;;;;;;;15.11;100.00;101106.56;6133913;28;20058;-89
2022/06/28 02:09:06;;;;;;;9.52;6.05;;;;;;;15.01;100.00;101104.78;6125158;29;20040;-89
2022/06/28 02:12:18;;;;;;;7.30;6.00;;;;;;;14.96;100.00;101108.75;6127022;29;20521;-89
2022/06/28 02:15:20;;;;;;;6.32;5.38;;;;;;;14.94;100.00;101108.88;6134445;28;20051;-88
2022/06/28 02:18:22;;;;;;;6.93;5.72;;;;;;;14.92;100.00;101104.75;6125084;29;20104;-89
2022/06/28 02:21:26;;;;;;;9.43;6.18;;;;;;;14.90;100.00;101106.66;6135278;28;20055;-89
2022/06/28 02:24:29;;;;;;;7.07;5.80;;;;;;;14.95;100.00;101107.09;6108607;29;20039;-89
2022/06/28 02:27:32;;;;;;;7.47;6.03;;;;;;;14.90;100.00;101109.28;6130121;28;20044;-89
2022/06/28 02:30:34;;;;;;;8.15;6.07;;;;;;;14.87;100.00;101115.59;6128596;29;20043;-89
2022/06/28 02:33:36;;;;;;;9.32;6.35;;;;;;;14.86;100.00;101111.34;6120161;29;20057;-90
2022/06/28 02:43:22;;;;;;;7.32;6.40;;;;;;;14.73;100.00;101126.38;6138143;29;20047;-89
2022/06/28 02:46:24;;;;;;;8.52;6.20;;;;;;;14.80;100.00;101123.09;6131951;28;20055;-89
2022/06/28 02:49:26;;;;;;;7.97;5.97;;;;;;;14.80;100.00;101138.75;6127442;29;20489;-89
2022/06/28 02:52:28;;;;;;;7.90;6.32;;;;;;;14.80;100.00;101127.50;6136960;28;20053;-89
2022/06/28 02:55:29;;;;;;;8.20;6.15;;;;;;;14.89;100.00;101125.88;6118525;29;20039;-89
2022/06/28 02:58:32;;;;;;;8.60;6.38;;;;;;;15.03;100.00;101123.72;6125325;28;20047;-89
2022/06/28 03:01:34;;;;;;;10.23;7.45;;;;;;;15.14;100.00;101134.97;6117712;29;20039;-89
2022/06/28 03:04:37;;;;;;;8.52;6.43;;;;;;;15.14;100.00;101138.41;6131600;28;20185;-89
2022/06/28 03:07:40;;;;;;;8.25;7.15;;;;;;;15.17;100.00;101135.50;6133287;28;20047;-89
2022/06/28 03:10:42;;;;;;;10.18;7.20;;;;;;;15.17;100.00;101132.09;6133325;29;20428;-89
2022/06/28 03:13:44;;;;;;;8.25;7.15;;;;;;;15.14;100.00;101129.75;6132836;29;20085;-89
2022/06/28 03:16:47;;;;;;;8.95;7.18;;;;;;;15.03;100.00;101128.06;6118274;29;20127;-88
2022/06/28 03:19:48;;;;;;;9.15;7.32;;;;;;;15.07;100.00;101139.91;6135493;29;20055;-89
2022/06/28 03:22:52;;;;;;;9.80;7.63;;;;;;;14.99;100.00;101142.38;6131260;29;20410;-89
2022/06/28 03:25:53;;;;;;;9.43;7.78;;;;;;;15.04;100.00;101145.38;6121061;29;20058;-90
2022/06/28 03:28:55;;;;;;;8.43;7.53;;;;;;;15.14;100.00;101146.22;6116308;29;20059;-89
2022/06/28 03:31:57;;;;;;;11.25;8.15;;;;;;;15.23;100.00;101149.81;6126331;28;21400;-89
2022/06/28 03:34:59;;;;;;;12.02;8.07;;;;;;;15.25;100.00;101150.47;6099776;28;20157;-89
2022/06/28 03:38:01;;;;;;;9.63;8.32;;;;;;;15.35;100.00;101161.75;6125339;29;20074;-90
2022/06/28 03:41:27;;;;;;;11.57;8.13;;;;;;;15.46;100.00;101156.41;6124477;29;20047;-90
2022/06/28 03:44:38;;;;;;;12.15;8.75;;;;;;;15.48;100.00;101166.72;6112329;29;20047;-89
2022/06/28 03:47:42;;;;;;;14.45;10.18;;;;;;;15.53;100.00;101167.13;6124922;29;20078;-89
2022/06/28 03:51:03;;;;;;;12.45;9.93;;;;;;;15.61;100.00;101176.88;6121702;29;20055;-89
2022/06/28 03:54:15;;;;;;;12.90;10.10;;;;;;;15.64;100.00;101179.19;6136107;28;20059;-89
2022/06/28 03:57:29;;;;;;;16.10;11.23;;;;;;;15.58;100.00;101180.56;6134212;28;20047;-90
2022/06/28 04:00:31;;;;;;;12.40;10.35;;;;;;;15.44;100.00;101171.38;6131794;28;20043;-89
2022/06/28 04:03:34;;;;;;;13.90;10.43;;;;;;;15.30;100.00;101187.41;6116937;29;20078;-90
2022/06/28 04:06:36;;;;;;;13.90;10.90;;;;;;;15.25;100.00;101181.78;6129608;28;20091;-89
2022/06/28 04:09:37;;;;;;;13.00;10.50;;;;;;;15.13;100.00;101182.84;6126806;28;20508;-89
2022/06/28 04:12:39;;;;;;;13.88;11.05;;;;;;;15.04;100.00;101176.69;6135223;29;20055;-89
2022/06/28 04:15:52;;;;;;;15.00;10.40;;;;;;;15.01;100.00;101176.94;6130356;29;20178;-90
2022/06/28 04:18:57;;;;;;;14.55;10.63;;;;;;;14.97;100.00;101192.03;6124521;28;20535;-90
2022/06/28 04:22:00;;;;;;;14.80;10.73;;;;;;;14.93;100.00;101182.84;6128964;28;20050;-89
2022/06/28 04:25:03;;;;;;;15.38;10.32;;;;;;;14.94;100.00;101191.47;6129363;28;20051;-89
2022/06/28 04:28:14;;;;;;;13.07;9.82;;;;;;;14.90;100.00;101193.50;6133690;29;20051;-89
2022/06/28 04:31:28;;;;;;;13.35;10.00;;;;;;;14.86;100.00;101198.19;6130829;29;20130;-89
2022/06/28 04:34:30;;;;;;;14.32;11.35;;;;;;;14.82;100.00;101199.38;6133433;28;20051;-89
2022/06/28 04:37:33;;;;;;;14.20;10.73;;;;;;;14.81;100.00;101207.34;6128640;29;20122;-90
2022/06/28 04:40:43;;;;;;;12.68;10.35;;;;;;;14.85;100.00;101201.72;6123132;29;20520;-90
2022/06/28 04:44:05;;;;;;;14.07;10.18;;;;;;;14.85;100.00;101206.94;6128892;29;20055;-90
2022/06/28 04:47:11;;;;;;;16.20;11.30;;;;;;;14.80;100.00;101203.91;6128190;28;20051;-90
2022/06/28 04:50:14;;;;;;;15.27;10.45;;;;;;;14.80;100.00;101206.50;6123874;29;20051;-89
2022/06/28 04:53:16;;;;;;;16.52;11.27;;;;;;;14.84;100.00;101207.91;6131577;29;20044;-89
2022/06/28 04:56:24;;;;;;;16.13;11.07;;;;;;;14.86;100.00;101206.00;6128750;29;20067;-89
2022/06/28 04:59:26;;;;;;;16.02;10.50;;;;;;;14.89;100.00;101204.09;6125820;29;20059;-90
2022/06/28 05:02:28;;;;;;;13.85;10.93;;;;;;;14.93;100.00;101210.66;6127851;29;20090;-90
2022/06/28 05:05:32;;;;;;;17.05;11.93;;;;;;;14.97;100.00;101204.25;6133947;28;20058;-90
2022/06/28 05:08:34;;;;;;;14.02;9.93;;;;;;;15.01;100.00;101214.28;6130365;28;20039;-89
2022/06/28 05:11:38;;;;;;;13.93;9.43;;;;;;;15.05;100.00;101220.03;6129245;28;20048;-90
2022/06/28 05:14:49;;;;;;;12.23;9.90;;;;;;;15.05;100.00;101220.03;6126124;29;20138;-90
2022/06/28 05:17:51;;;;;;;12.15;8.57;;;;;;;15.14;100.00;101216.63;6126814;29;20056;-89
2022/06/28 05:20:53;;;;;;;13.30;8.73;;;;;;;15.24;100.00;101222.69;6121087;29;20777;-89
2022/06/28 05:23:57;;;;;;;10.38;7.75;;;;;;;15.21;100.00;101215.16;6116557;29;20044;-89
2022/06/28 05:27:15;;;;;;;10.48;8.38;;;;;;;15.20;100.00;101223.09;6124243;29;20677;-89
2022/06/28 05:30:18;;;;;;;11.00;7.72;;;;;;;15.22;100.00;101221.19;6135199;28;20152;-90
2022/06/28 05:33:20;;;;;;;10.45;7.40;;;;;;;15.27;100.00;101214.59;6128028;29;20482;-89
2022/06/28 05:36:23;;;;;;;11.70;7.60;;;;;;;15.34;100.00;101212.28;6135082;29;20039;-89
2022/06/28 05:39:25;;;;;;;14.48;8.70;;;;;;;15.40;100.00;101209.13;6130639;28;20039;-90
2022/06/28 05:42:27;;;;;;;12.77;8.13;;;;;;;15.42;100.00;101217.63;6126886;29;20505;-90
2022/06/28 05:45:29;;;;;;;9.45;7.40;;;;;;;15.37;100.00;101219.00;6144881;28;20121;-89
2022/06/28 05:48:31;;;;;;;9.75;7.85;;;;;;;15.46;100.00;101216.41;6139778;28;20446;-89
2022/06/28 05:51:33;;;;;;;9.43;5.93;;;;;;;15.55;100.00;101209.53;6112419;29;20116;-90
2022/06/28 05:54:35;;;;;;;8.93;6.00;;;;;;;15.56;100.00;101208.59;6132961;29;20047;-90
2022/06/28 05:57:37;;;;;;;12.75;6.28;;;;;;;15.74;100.00;101215.78;6137165;29;20062;-90
2022/06/28 06:00:39;;;;;;;8.65;5.65;;;;;;;15.80;100.00;101223.03;6137490;28;20054;-90
2022/06/28 06:03:42;;;;;;;9.90;5.13;;;;;;;15.75;100.00;101217.41;6134293;28;20623;-89
2022/06/28 06:06:44;;;;;;;8.18;5.53;;;;;;;15.69;100.00;101214.38;6127503;29;20780;-90
2022/06/28 06:09:46;;;;;;;9.00;5.38;;;;;;;15.71;100.00;101214.25;6139166;28;20055;-89
2022/06/28 06:12:48;;;;;;;6.22;4.65;;;;;;;15.82;100.00;101208.06;6137033;29;20087;-89
2022/06/28 06:15:50;;;;;;;6.35;4.45;;;;;;;15.81;100.00;101212.47;6124263;29;20044;-89
2022/06/28 06:18:52;;;;;;;7.43;4.45;;;;;;;15.82;100.00;101208.06;6130100;29;20043;-89
2022/06/28 06:21:55;;;;;;;6.72;4.13;;;;;;;15.81;100.00;101216.88;6141203;28;20091;-89
2022/06/28 06:24:57;;;;;;;8.38;4.30;;;;;;;15.87;100.00;101219.72;6137261;29;20535;-89
2022/06/28 06:28:04;;;;;;;7.07;3.83;;;;;;;16.00;100.00;101221.22;6134936;29;20047;-89
2022/06/28 06:31:08;;;;;;;6.88;4.30;;;;;;;16.12;100.00;101223.56;6134384;29;20140;-91
2022/06/28 06:34:28;;;;;;;6.22;3.75;;;;;;;16.14;100.00;101219.00;6150302;28;20063;-91
2022/06/28 06:37:35;;;;;;;4.60;3.38;;;;;;;16.30;100.00;101228.06;6136664;29;20183;-90
2022/06/28 06:40:38;;;;;;;6.22;3.80;;;;;;;16.42;99.74;101233.94;6153163;28;20051;-89
2022/06/28 06:43:40;;;;;;;3.67;2.60;;;;;;;16.42;99.33;101226.09;6140587;28;20055;-89
2022/06/28 06:46:48;;;;;;;7.40;3.45;;;;;;;16.50;95.95;101234.06;6138121;28;20150;-89
2022/06/28 06:49:50;;;;;;;7.20;2.72;;;;;;;16.48;96.57;101236.00;6139933;28;20043;-90
2022/06/28 06:52:52;;;;;;;5.05;3.15;;;;;;;16.60;96.04;101236.66;6150787;28;20410;-90
2022/06/28 06:55:54;;;;;;;4.80;2.03;;;;;;;16.55;97.10;101239.69;6152571;28;20047;-90
2022/06/28 06:58:56;;;;;;;3.70;1.58;;;;;;;16.58;94.82;101240.22;6138977;28;20410;-90
2022/06/28 07:01:59;;;;;;;4.28;1.70;;;;;;;16.68;91.82;101231.53;6114213;29;20667;-89
2022/06/28 07:05:07;;;;;;;2.88;1.35;;;;;;;16.68;89.85;101234.97;6137754;29;20130;-88
2022/06/28 07:08:09;;;;;;;2.40;1.00;;;;;;;16.68;86.54;101236.75;6138449;29;20047;-90
2022/06/28 07:11:24;;;;;;;3.47;1.05;;;;;;;16.76;84.72;101231.63;6137441;28;20055;-90
2022/06/28 07:14:26;;;;;;;2.55;1.17;;;;;;;16.93;84.24;101236.13;6132723;28;20043;-90
2022/06/28 07:17:29;;;;;;;3.17;1.00;;;;;;;16.92;87.07;101234.47;6133644;29;20063;-89
2022/06/28 07:20:31;;;;;;;3.70;1.48;;;;;;;17.00;87.19;101234.56;6140419;28;21120;-90
2022/06/28 07:23:33;;;;;;;4.20;1.30;;;;;;;17.02;86.66;101237.06;6118592;29;20044;-90
2022/06/28 07:26:41;;;;;;;3.13;1.13;;;;;;;17.09;85.65;101242.50;6125237;28;20040;-90
2022/06/28 07:29:42;;;;;;;4.20;1.70;;;;;;;17.16;86.74;101247.00;6139833;28;20058;-89
2022/06/28 07:32:44;;;;;;;3.35;1.20;;;;;;;17.21;86.74;101249.19;6129111;29;20126;-90
2022/06/28 07:35:46;;;;;;;2.25;1.10;;;;;;;17.40;84.63;101245.63;6122923;29;20585;-90
2022/06/28 07:38:49;;;;;;;4.45;1.40;;;;;;;17.42;84.92;101244.50;6128705;29;20095;-89
2022/06/28 07:41:53;;;;;;;2.90;1.30;;;;;;;17.49;83.46;101243.91;6131524;29;20546;-88
2022/06/28 07:45:15;;;;;;;3.05;1.88;;;;;;;17.61;81.35;101246.19;6130019;29;20039;-88
2022/06/28 07:48:19;;;;;;;7.85;1.77;;;;;;;17.63;83.50;101251.25;6137889;28;20494;-88
2022/06/28 07:54:42;;;;;;;3.65;1.40;;;;;;;17.71;81.40;101240.84;6128913;29;20223;-88
2022/06/28 07:57:48;;;;;;;4.75;1.40;;;;;;;17.82;80.50;101245.91;6118806;28;20739;-88
2022/06/28 08:00:51;;;;;;;4.18;1.52;;;;;;;17.82;80.66;101243.28;6128510;29;20110;-89
2022/06/28 08:03:53;;;;;;;2.17;1.20;;;;;;;17.94;80.04;101243.88;6138169;28;20039;-88
2022/06/28 08:06:58;;;;;;;2.33;1.50;;;;;;;17.92;80.86;101240.56;6124715;29;20489;-88
2022/06/28 08:10:01;;;;;;;5.80;1.40;;;;;;;17.98;79.12;101252.25;6132043;29;20039;-88
2022/06/28 08:13:04;;;;;;;4.95;2.63;;;;;;;17.99;79.40;101240.81;6131640;29;20054;-88
2022/06/28 08:16:07;;;;;;;3.13;1.40;;;;;;;17.99;80.20;101243.41;6125680;28;20434;-89
2022/06/28 08:19:09;;;;;;;4.75;1.80;;;;;;;18.07;79.61;101246.91;6125174;29;20197;-89
2022/06/28 08:22:11;;;;;;;2.95;1.67;;;;;;;18.14;80.39;101244.50;6122870;28;20541;-88
2022/06/28 08:25:14;;;;;;;2.90;1.73;;;;;;;18.29;78.11;101260.50;6127539;29;20303;-88
2022/06/28 08:28:22;;;;;;;6.00;1.77;;;;;;;18.45;75.58;101254.53;6120012;28;20094;-88
2022/06/28 08:31:24;;;;;;;3.33;1.70;;;;;;;18.49;76.96;101253.25;6141335;28;20134;-88
2022/06/28 08:34:26;;;;;;;3.42;1.65;;;;;;;18.55;75.74;101247.38;6123830;28;20039;-88
2022/06/28 08:37:28;;;;;;;3.78;1.58;;;;;;;18.49;77.04;101243.59;6126150;28;20047;-88
2022/06/28 08:40:30;;;;;;;3.40;1.52;;;;;;;18.56;78.32;101251.66;6127231;29;20122;-88
2022/06/28 08:43:34;;;;;;;4.57;1.60;;;;;;;18.80;75.80;101242.28;6121080;29;20051;-88
2022/06/28 08:46:36;;;;;;;5.30;1.98;;;;;;;18.87;75.05;101245.94;6122870;29;20059;-88
2022/06/28 08:49:49;;;;;;;4.93;1.88;;;;;;;18.98;72.68;101250.06;6127147;28;20150;-88
2022/06/28 08:53:01;;;;;;;3.63;1.73;;;;;;;19.10;71.03;101248.78;6122647;29;20051;-88
2022/06/28 08:56:05;;;;;;;4.80;1.70;;;;;;;19.22;71.91;101251.94;6120289;29;20042;-88
2022/06/28 08:59:07;;;;;;;4.55;1.70;;;;;;;19.43;71.58;101252.34;6123852;29;20047;-88
2022/06/28 09:02:12;;;;;;;6.53;1.77;;;;;;;19.55;72.95;101247.56;6141346;28;20417;-87
2022/06/28 09:05:15;;;;;;;1.95;1.35;;;;;;;19.85;66.13;101247.94;6131031;28;20117;-88
2022/06/28 09:08:17;;;;;;;3.30;1.65;;;;;;;20.19;68.42;101245.97;6128168;28;20057;-88
2022/06/28 09:11:19;;;;;;;3.28;2.33;;;;;;;20.53;65.18;101247.53;6125167;28;20047;-88
2022/06/28 09:14:29;;;;;;;1.98;1.70;;;;;;;20.54;63.14;101248.34;6130389;29;20043;-88
2022/06/28 09:17:33;;;;;;;2.20;1.50;;;;;;;20.35;64.84;101254.84;6123052;29;20035;-88
2022/06/28 09:20:38;;;;;;;3.80;1.90;;;;;;;20.54;64.86;101257.06;6123934;29;20043;-88
2022/06/28 09:23:42;;;;;;;3.08;1.73;;;;;;;20.79;63.32;101255.19;6127661;29;20505;-88
2022/06/28 09:26:44;;;;;;;3.10;1.45;;;;;;;20.80;61.26;101256.03;6121726;29;20050;-88
2022/06/28 09:29:48;;;;;;;3.70;2.03;;;;;;;20.58;59.04;101250.50;6124388;28;20035;-88
2022/06/28 09:32:50;;;;;;;2.60;2.08;;;;;;;20.76;59.12;101252.91;6118216;28;20046;-88
2022/06/28 09:35:53;;;;;;;2.97;1.33;;;;;;;21.17;57.12;101249.31;6120713;28;20138;-88
2022/06/28 09:39:33;;;;;;;4.43;1.83;;;;;;;21.45;57.94;101242.56;6130372;29;20044;-87
2022/06/28 09:42:35;;;;;;;4.07;1.75;;;;;;;21.83;56.37;101245.22;6131362;29;20062;-88
2022/06/28 09:45:44;;;;;;;3.17;1.60;;;;;;;22.20;55.19;101246.25;6131537;28;20068;-89
2022/06/28 09:48:45;;;;;;;3.80;1.50;;;;;;;22.50;57.19;101233.91;6131949;28;20214;-89
2022/06/28 09:51:48;;;;;;;4.43;1.98;;;;;;;22.51;54.30;101238.19;6129022;28;20047;-89
2022/06/28 09:54:54;;;;;;;4.57;2.10;;;;;;;22.54;53.59;101245.72;6132690;29;20054;-88
2022/06/28 09:57:57;;;;;;;4.57;2.20;;;;;;;22.48;54.80;101238.53;6133154;28;20822;-90
2022/06/28 10:00:59;;;;;;;3.28;2.67;;;;;;;22.47;56.29;101236.91;6137266;28;20160;-89
2022/06/28 10:04:02;;;;;;;2.80;2.38;;;;;;;22.15;55.11;101241.47;6137342;28;20051;-90
2022/06/28 10:07:04;;;;;;;3.72;2.08;;;;;;;21.73;56.97;101240.19;6117349;28;20054;-90
2022/06/28 10:10:09;;;;;;;4.15;2.10;;;;;;;21.49;57.54;101246.50;6138103;28;20705;-89
2022/06/28 10:16:45;;;;;;;7.13;2.08;;;;;;;21.94;57.12;101249.28;6126444;28;20533;-85
2022/06/28 10:19:48;;;;;;;3.80;1.90;;;;;;;22.42;55.32;101249.00;6132969;29;20126;-85
2022/06/28 10:22:50;;;;;;;4.25;2.20;;;;;;;22.94;53.24;101248.06;6139063;28;20067;-86
2022/06/28 10:26:20;;;;;;;4.80;2.20;;;;;;;23.29;52.46;101241.16;6140865;28;20103;-96
2022/06/28 10:29:22;;;;;;;2.15;1.90;;;;;;;23.55;51.82;101251.19;6133852;29;20046;-94
2022/06/28 10:32:44;;;;;;;3.05;1.70;;;;;;;23.68;50.29;101239.13;6136448;29;21169;-96
2022/06/28 10:35:52;;;;;;;2.40;1.88;;;;;;;23.51;49.68;101231.44;6134915;28;20074;-95
2022/06/28 10:39:12;;;;;;;3.03;2.35;;;;;;;23.22;50.71;101235.00;6129743;28;20484;-96
2022/06/28 10:42:14;;;;;;;5.45;1.80;;;;;;;23.20;48.94;101237.84;6137514;29;20191;-95
2022/06/28 10:45:19;;;;;;;2.05;1.80;;;;;;;23.38;50.19;101237.41;6125007;29;20116;-95
2022/06/28 10:48:21;;;;;;;4.63;2.00;;;;;;;23.93;46.85;101234.25;6136733;28;20044;-96
2022/06/28 10:51:24;;;;;;;3.13;2.05;;;;;;;24.02;47.27;101225.16;6140635;28;20050;-95
2022/06/28 10:54:26;;;;;;;2.42;1.70;;;;;;;24.09;48.63;101228.66;6120617;29;20070;-95
2022/06/28 10:57:36;;;;;;;5.25;2.10;;;;;;;23.59;48.65;101226.00;6135708;29;20050;-95
2022/06/28 11:00:52;;;;;;;4.47;1.77;;;;;;;23.08;48.50;101225.28;6121865;29;20047;-94
2022/06/28 11:04:24;;;;;;;3.08;1.98;;;;;;;23.09;48.93;101217.19;6133698;28;20046;-94
2022/06/28 11:07:27;;;;;;;2.13;1.75;;;;;;;23.40;48.75;101216.06;6136776;28;20050;-95
2022/06/28 11:10:30;;;;;;;2.45;1.58;;;;;;;23.95;46.66;101208.41;6128248;29;20103;-96
2022/06/28 11:13:32;;;;;;;3.65;1.77;;;;;;;24.26;46.47;101219.41;6135912;28;20528;-93
2022/06/28 11:16:45;;;;;;;3.92;2.38;;;;;;;24.08;44.83;101211.97;6126432;28;20047;-94
2022/06/28 11:20:00;;;;;;;2.72;1.80;;;;;;;23.67;47.44;101211.84;6132793;29;20540;-96
2022/06/28 11:23:03;;;;;;;2.33;1.80;;;;;;;23.71;47.84;101205.16;6133038;29;20046;-93
2022/06/28 11:29:35;;;;;;;1.93;1.50;;;;;;;23.79;46.13;101188.38;6132904;29;20046;-96
2022/06/28 11:32:46;;;;;;;2.60;1.70;;;;;;;24.14;44.67;101189.22;6126729;28;20571;-95
2022/06/28 11:35:47;;;;;;;3.25;1.60;;;;;;;24.35;45.40;101192.78;6128459;29;20055;-94
2022/06/28 11:38:51;;;;;;;3.10;1.85;;;;;;;24.45;45.17;101180.03;6123917;29;20520;-95
2022/06/28 11:41:55;;;;;;;1.70;1.40;;;;;;;24.52;45.44;101190.66;6124033;29;20054;-95
2022/06/28 11:44:58;;;;;;;4.82;1.70;;;;;;;24.55;43.74;101183.16;6145453;28;20136;-96
2022/06/28 11:48:11;;;;;;;2.83;1.55;;;;;;;24.80;44.38;101180.00;6134540;28;20039;-96
2022/06/28 11:51:25;;;;;;;4.20;1.80;;;;;;;24.98;42.25;101177.59;6133652;29;20118;-96
2022/06/28 11:54:28;;;;;;;2.35;1.35;;;;;;;24.92;41.13;101178.41;6138810;29;20514;-96
2022/06/28 11:57:30;;;;;;;2.70;1.50;;;;;;;25.12;41.62;101179.25;6151819;28;20054;-96
2022/06/28 12:00:32;;;;;;;2.70;1.50;;;;;;;24.96;40.99;101189.41;6120778;29;20047;-96
2022/06/28 12:03:54;;;;;;;5.55;1.55;;;;;;;24.38;44.05;101172.06;6130370;28;20282;-94
2022/06/28 12:06:56;;;;;;;3.50;1.70;;;;;;;23.99;42.96;101172.66;6135799;29;20043;-85
2022/06/28 12:09:58;;;;;;;3.13;1.77;;;;;;;24.37;44.96;101167.78;6134345;29;20121;-86
2022/06/28 12:13:11;;;;;;;2.05;1.42;;;;;;;25.00;45.18;101170.25;6135543;28;20698;-85
2022/06/28 12:16:13;;;;;;;1.77;1.48;;;;;;;26.06;44.15;101161.53;6139162;28;20040;-86
2022/06/28 12:19:35;;;;;;;1.65;1.50;;;;;;;27.01;42.89;101159.09;6132519;28;20074;-85
2022/06/28 12:22:37;;;;;;;1.75;1.50;;;;;;;27.67;40.26;101167.59;6131632;29;20058;-85
2022/06/28 12:25:40;;;;;;;2.05;1.52;;;;;;;27.82;36.50;101162.75;6125773;29;20070;-86
2022/06/28 12:28:42;;;;;;;6.45;1.60;;;;;;;27.67;37.66;101162.25;6128819;29;20047;-86
2022/06/28 12:31:44;;;;;;;2.47;1.65;;;;;;;26.88;37.79;101163.66;6147929;28;20043;-86
2022/06/28 12:34:46;;;;;;;2.35;1.60;;;;;;;26.08;39.46;101156.00;6121570;28;20110;-86
2022/06/28 12:37:48;;;;;;;3.70;1.77;;;;;;;25.59;42.05;101147.50;6124658;29;20050;-86
2022/06/28 12:40:50;;;;;;;2.13;1.50;;;;;;;26.22;42.48;101152.28;6141760;28;20042;-85
2022/06/28 12:43:52;;;;;;;2.83;1.88;;;;;;;27.07;40.33;101136.13;6120512;29;20083;-86
2022/06/28 12:46:54;;;;;;;1.95;1.45;;;;;;;27.75;38.80;101134.56;6128441;29;20133;-87
2022/06/28 12:49:59;;;;;;;2.88;1.70;;;;;;;27.43;38.11;101134.69;6130064;28;20048;-87
2022/06/28 12:53:02;;;;;;;2.72;1.52;;;;;;;27.00;38.94;101138.03;6127782;28;20102;-87
2022/06/28 12:56:04;;;;;;;2.38;1.30;;;;;;;26.74;40.02;101131.88;6126285;28;20044;-88
2022/06/28 12:59:08;;;;;;;2.00;1.35;;;;;;;27.30;39.83;101129.44;6133219;29;20043;-88
2022/06/28 13:02:10;;;;;;;2.75;1.23;;;;;;;27.47;40.62;101130.53;6129628;28;20043;-87
2022/06/28 13:05:12;;;;;;;1.38;1.27;;;;;;;28.15;38.32;101113.69;6124905;28;20055;-88
2022/06/28 13:08:14;;;;;;;1.70;1.23;;;;;;;28.67;35.87;101111.41;6126864;28;20047;-89
2022/06/28 13:11:16;;;;;;;6.00;2.30;;;;;;;28.68;34.97;101110.34;6135056;28;20055;-88
2022/06/28 13:14:18;;;;;;;2.75;1.60;;;;;;;28.51;36.06;101110.16;6136684;29;20528;-89
2022/06/28 13:17:23;;;;;;;1.70;1.25;;;;;;;27.88;35.86;101106.00;6153731;28;20433;-88
2022/06/28 13:20:25;;;;;;;1.65;1.27;;;;;;;27.34;38.24;101104.88;6143529;28;20377;-88
2022/06/28 13:23:30;;;;;;;1.98;1.30;;;;;;;27.60;37.82;101095.00;6135746;28;20043;-87
2022/06/28 13:26:33;;;;;;;2.75;1.90;;;;;;;27.36;37.87;101094.03;6129593;29;20043;-88
2022/06/28 13:29:35;;;;;;;3.38;1.30;;;;;;;26.64;38.20;101078.41;6144096;28;20047;-86
2022/06/28 13:32:37;;;;;;;2.30;1.30;;;;;;;26.88;39.60;101081.28;6132661;28;20394;-86
2022/06/28 13:35:43;;;;;;;1.60;1.30;;;;;;;27.71;38.50;101079.13;6139692;28;20051;-86
2022/06/28 13:38:45;;;;;;;1.65;1.17;;;;;;;28.30;36.65;101076.03;6141660;28;20530;-86
2022/06/28 13:41:59;;;;;;;2.15;1.33;;;;;;;28.85;35.12;101070.53;6132235;28;20051;-87
2022/06/28 13:45:02;;;;;;;1.15;1.05;;;;;;;29.23;35.60;101074.66;6143695;29;20051;-88
2022/06/28 13:48:05;;;;;;;1.10;1.00;;;;;;;29.59;31.71;101075.41;6134720;29;20047;-87
2022/06/28 13:51:07;;;;;;;2.72;1.30;;;;;;;29.86;32.65;101067.75;6125084;28;20047;-88
2022/06/28 13:54:09;;;;;;;1.08;1.00;;;;;;;30.14;31.57;101058.97;6140235;29;20051;-88
2022/06/28 13:57:11;;;;;;;1.60;1.17;;;;;;;30.33;33.51;101058.78;6158210;28;20062;-88
2022/06/28 14:00:13;;;;;;;0.90;0.90;;;;;;;30.53;30.45;101050.31;6143761;28;20046;-88
2022/06/28 14:03:15;;;;;;;1.10;0.93;;;;;;;30.51;29.24;101058.59;6140351;28;20397;-88
2022/06/28 14:06:17;;;;;;;1.73;1.20;;;;;;;30.34;30.79;101057.75;6138986;28;20050;-88
2022/06/28 14:09:19;;;;;;;1.88;1.10;;;;;;;30.46;31.17;101056.63;6142390;28;20036;-88
2022/06/28 14:12:22;;;;;;;1.95;1.05;;;;;;;30.60;30.71;101062.47;6141692;28;20130;-88
2022/06/28 14:15:24;;;;;;;2.42;1.08;;;;;;;29.71;30.51;101062.09;6156305;28;20067;-87
2022/06/28 14:18:32;;;;;;;1.40;1.30;;;;;;;28.81;32.94;101068.56;6139633;29;20134;-87
2022/06/28 14:21:33;;;;;;;1.20;1.00;;;;;;;28.13;33.01;101070.50;6135030;28;20514;-87
2022/06/28 14:24:36;;;;;;;1.90;1.20;;;;;;;27.64;33.12;101072.25;6135975;29;20039;-87
2022/06/28 14:27:39;;;;;;;1.52;1.10;;;;;;;27.32;34.80;101068.91;6133224;29;20058;-87
2022/06/28 14:30:59;;;;;;;1.02;0.90;;;;;;;27.06;36.92;101065.44;6134298;29;20035;-88
2022/06/28 14:34:01;;;;;;;1.92;1.00;;;;;;;27.11;35.37;101060.28;6133499;29;20047;-88